Time;durP1;ratioP1;P1;durP2;ratioP2;P2;SDS_P1;SDS_P2;PMS_P1;PMS_P2;Temp;Humidity;BMP_temperature;BMP_pressure;BME280_temperature;BME280_humidity;BME280_pressure;Samples;Min_cycle;Max_cycle;Signal;HPM_P1;HPM_P2
2021/10/22 00:02:00;;;;;;;1.30;1.20;;;8.00;99.90;;;;;;5051414;28;20295;-69
2021/10/22 00:04:26;;;;;;;0.90;0.90;;;8.00;99.90;;;;;;5053301;28;20162;-69
2021/10/22 00:06:52;;;;;;;1.00;0.95;;;8.00;99.90;;;;;;5042491;28;20331;-69
2021/10/22 00:09:18;;;;;;;0.97;0.97;;;7.90;99.90;;;;;;5067042;28;20185;-68
2021/10/22 00:11:45;;;;;;;2.77;0.93;;;7.90;99.90;;;;;;5060078;28;20174;-69
2021/10/22 00:14:11;;;;;;;1.45;1.35;;;7.90;99.90;;;;;;5033370;28;20265;-70
2021/10/22 00:16:37;;;;;;;1.20;1.10;;;7.90;99.90;;;;;;5042712;28;20215;-68
2021/10/22 00:19:03;;;;;;;0.70;0.70;;;7.80;99.90;;;;;;5053057;28;20189;-68
2021/10/22 00:21:29;;;;;;;1.00;0.90;;;7.80;99.90;;;;;;5053110;28;20407;-67
2021/10/22 00:23:55;;;;;;;2.53;1.20;;;7.70;99.90;;;;;;5053252;28;20184;-69
2021/10/22 00:26:20;;;;;;;1.17;1.10;;;7.70;99.90;;;;;;5046097;28;20413;-68
2021/10/22 00:28:46;;;;;;;1.63;1.40;;;7.60;99.90;;;;;;5032845;28;20187;-68
2021/10/22 00:31:12;;;;;;;0.93;0.93;;;7.60;99.90;;;;;;5033284;28;20285;-68
2021/10/22 00:33:38;;;;;;;5.90;1.15;;;7.50;99.90;;;;;;5032981;28;20167;-68
2021/10/22 00:36:06;;;;;;;1.65;1.65;;;7.50;99.90;;;;;;5037261;28;20181;-67
2021/10/22 00:38:32;;;;;;;1.27;1.20;;;7.50;99.90;;;;;;5052553;28;20237;-68
2021/10/22 00:40:58;;;;;;;0.57;0.57;;;7.40;99.90;;;;;;5052923;28;20162;-69
2021/10/22 00:43:23;;;;;;;1.53;1.30;;;7.30;99.90;;;;;;5052909;28;20403;-68
2021/10/22 00:45:51;;;;;;;2.73;0.60;;;7.30;99.90;;;;;;5050974;28;20451;-67
2021/10/22 00:48:19;;;;;;;0.90;0.90;;;7.30;99.90;;;;;;5046251;28;20319;-68
2021/10/22 00:50:51;;;;;;;1.75;1.63;;;7.30;99.90;;;;;;5033119;28;20167;-67
2021/10/22 00:53:18;;;;;;;1.00;0.90;;;7.20;99.90;;;;;;5033053;28;20157;-68
2021/10/22 00:55:44;;;;;;;1.30;1.20;;;7.20;99.90;;;;;;5036036;28;20258;-68
2021/10/22 00:58:11;;;;;;;1.70;1.60;;;7.30;99.90;;;;;;5052419;28;20193;-67
2021/10/22 01:00:37;;;;;;;1.30;1.20;;;7.30;99.90;;;;;;5051886;28;20172;-67
2021/10/22 01:03:06;;;;;;;0.70;0.70;;;7.40;99.90;;;;;;5052124;28;20171;-69
2021/10/22 01:05:32;;;;;;;1.30;1.27;;;7.40;99.90;;;;;;5052861;28;20199;-69
2021/10/22 01:07:59;;;;;;;2.08;1.40;;;7.40;99.90;;;;;;5033064;28;20235;-68
2021/10/22 01:10:24;;;;;;;1.25;1.25;;;7.50;99.90;;;;;;5032729;28;20235;-67
2021/10/22 01:12:50;;;;;;;1.20;1.10;;;7.50;99.90;;;;;;5030247;28;20175;-68
2021/10/22 01:15:16;;;;;;;1.37;1.27;;;7.50;99.90;;;;;;5029454;28;20692;-68
2021/10/22 01:17:45;;;;;;;2.00;1.70;;;7.50;99.90;;;;;;5045451;28;20208;-67
2021/10/22 01:20:16;;;;;;;1.13;1.02;;;7.50;99.90;;;;;;5048634;28;20426;-67
2021/10/22 01:22:42;;;;;;;2.03;1.90;;;7.50;99.90;;;;;;5049394;28;20321;-68
2021/10/22 01:25:11;;;;;;;1.55;1.45;;;7.50;99.90;;;;;;5048439;28;20425;-69
2021/10/22 01:27:36;;;;;;;1.25;1.25;;;7.50;99.90;;;;;;5033260;28;20214;-69
2021/10/22 01:30:03;;;;;;;1.43;1.33;;;7.60;99.90;;;;;;5028625;28;20275;-68
2021/10/22 01:32:30;;;;;;;1.13;0.93;;;7.50;99.90;;;;;;5029383;28;20165;-69
2021/10/22 01:34:55;;;;;;;1.25;1.15;;;7.50;99.90;;;;;;5029336;28;20210;-67
2021/10/22 01:37:21;;;;;;;1.17;1.10;;;7.50;99.90;;;;;;5042132;28;20287;-69
2021/10/22 01:39:47;;;;;;;1.20;1.20;;;7.50;99.90;;;;;;5048177;28;20200;-68
2021/10/22 01:42:13;;;;;;;1.67;1.60;;;7.50;99.90;;;;;;5049080;28;20470;-69
2021/10/22 01:44:38;;;;;;;1.43;1.37;;;7.50;99.90;;;;;;5048991;28;20480;-68
2021/10/22 01:47:04;;;;;;;1.53;1.33;;;7.50;99.90;;;;;;5046220;28;20222;-67
2021/10/22 01:49:29;;;;;;;1.30;1.20;;;7.50;99.90;;;;;;5048812;28;20181;-69
2021/10/22 01:51:55;;;;;;;1.20;1.13;;;7.60;99.90;;;;;;5048774;28;20174;-68
2021/10/22 01:54:21;;;;;;;1.53;1.43;;;7.60;99.90;;;;;;5048413;28;20372;-68
2021/10/22 01:56:47;;;;;;;1.47;1.37;;;7.60;99.90;;;;;;5046943;28;20199;-67
2021/10/22 01:59:13;;;;;;;1.95;1.50;;;7.60;99.90;;;;;;5048605;28;20224;-68
2021/10/22 02:01:38;;;;;;;1.27;1.23;;;7.60;99.90;;;;;;5048533;28;20382;-67
2021/10/22 02:04:04;;;;;;;1.40;1.40;;;7.60;99.90;;;;;;5048645;28;20181;-69
2021/10/22 02:06:30;;;;;;;1.27;1.17;;;7.60;99.90;;;;;;5037208;28;20201;-68
2021/10/22 02:08:55;;;;;;;1.37;1.27;;;7.60;99.90;;;;;;5028479;28;20456;-68
2021/10/22 02:11:21;;;;;;;1.00;1.00;;;7.60;99.90;;;;;;5027813;28;20174;-68
2021/10/22 02:13:47;;;;;;;2.90;2.30;;;7.60;99.90;;;;;;5028589;28;20240;-67
2021/10/22 02:16:13;;;;;;;2.57;1.30;;;7.50;99.90;;;;;;5034806;28;20186;-69
2021/10/22 02:18:39;;;;;;;1.10;1.10;;;7.50;99.90;;;;;;5048081;28;20428;-68
2021/10/22 02:21:04;;;;;;;1.47;1.37;;;7.50;99.90;;;;;;5048402;28;20231;-67
2021/10/22 02:23:30;;;;;;;1.10;1.10;;;7.40;99.90;;;;;;5048025;28;20241;-68
2021/10/22 02:25:55;;;;;;;1.30;1.20;;;7.40;99.90;;;;;;5046439;28;20402;-68
2021/10/22 02:28:21;;;;;;;0.93;0.93;;;7.30;99.90;;;;;;5041619;28;20189;-67
2021/10/22 02:30:47;;;;;;;1.70;1.60;;;7.30;99.90;;;;;;5028398;28;20232;-67
2021/10/22 02:33:13;;;;;;;1.67;1.57;;;7.20;99.90;;;;;;5027548;28;20168;-68
2021/10/22 02:35:39;;;;;;;1.47;1.37;;;7.20;99.90;;;;;;5043001;28;20205;-69
2021/10/22 02:38:05;;;;;;;1.67;1.33;;;7.10;99.90;;;;;;5047611;28;20602;-68
2021/10/22 02:40:30;;;;;;;1.40;1.30;;;7.00;99.90;;;;;;5047989;28;20202;-68
2021/10/22 02:42:56;;;;;;;2.17;2.00;;;7.00;99.90;;;;;;5047954;28;20306;-68
2021/10/22 02:45:22;;;;;;;1.40;1.10;;;6.90;99.90;;;;;;5034820;28;20253;-68
2021/10/22 02:47:48;;;;;;;2.10;1.90;;;6.90;99.90;;;;;;5027654;28;20533;-70
2021/10/22 02:50:14;;;;;;;2.57;2.37;;;6.80;99.90;;;;;;5027959;28;20439;-67
2021/10/22 02:52:40;;;;;;;3.03;1.60;;;6.80;99.90;;;;;;5027972;28;20218;-68
2021/10/22 02:55:06;;;;;;;1.80;1.17;;;6.70;99.90;;;;;;5037981;28;20261;-68
2021/10/22 02:57:32;;;;;;;1.17;1.15;;;6.60;99.90;;;;;;5028553;28;20199;-68
2021/10/22 02:59:59;;;;;;;1.80;1.70;;;6.60;99.90;;;;;;5027874;28;20176;-68
2021/10/22 03:02:25;;;;;;;1.33;1.23;;;6.60;99.90;;;;;;5026921;28;20438;-68
2021/10/22 03:04:50;;;;;;;1.50;1.40;;;6.50;99.90;;;;;;5035828;28;20181;-69
2021/10/22 03:07:16;;;;;;;1.47;1.27;;;6.50;99.90;;;;;;5047054;28;20419;-67
2021/10/22 03:09:42;;;;;;;1.23;1.23;;;6.40;99.90;;;;;;5047336;28;20176;-67
2021/10/22 03:12:07;;;;;;;1.43;1.33;;;6.40;99.90;;;;;;5047353;28;20175;-67
2021/10/22 03:14:33;;;;;;;1.40;1.30;;;6.40;99.90;;;;;;5041327;28;20206;-67
2021/10/22 03:16:59;;;;;;;1.13;1.07;;;6.30;99.90;;;;;;5027189;28;20229;-67
2021/10/22 03:19:25;;;;;;;0.97;0.93;;;6.30;99.90;;;;;;5027530;28;20198;-69
2021/10/22 03:21:50;;;;;;;1.20;1.00;;;6.30;99.90;;;;;;5027509;28;20294;-68
2021/10/22 03:24:16;;;;;;;1.20;1.10;;;6.20;99.90;;;;;;5029657;28;20186;-67
2021/10/22 03:26:42;;;;;;;1.37;1.27;;;6.20;99.90;;;;;;5046781;28;20162;-69
2021/10/22 03:29:08;;;;;;;2.80;1.33;;;6.10;99.90;;;;;;5047165;28;20550;-68
2021/10/22 03:31:35;;;;;;;2.87;1.47;;;6.10;99.90;;;;;;5046991;28;20637;-68
2021/10/22 03:34:00;;;;;;;2.05;1.67;;;6.10;99.90;;;;;;5046678;28;20308;-67
2021/10/22 03:36:27;;;;;;;1.83;1.30;;;6.00;99.90;;;;;;5026644;28;20185;-67
2021/10/22 03:38:52;;;;;;;1.15;1.02;;;6.00;99.90;;;;;;5026926;28;20253;-68
2021/10/22 03:41:18;;;;;;;3.80;1.43;;;5.90;99.90;;;;;;5027224;28;20183;-68
2021/10/22 03:43:44;;;;;;;1.20;1.20;;;5.90;99.90;;;;;;5027256;28;20454;-69
2021/10/22 03:46:10;;;;;;;1.13;0.97;;;5.90;99.90;;;;;;5044302;28;20216;-68
2021/10/22 03:48:35;;;;;;;1.53;1.43;;;5.80;99.90;;;;;;5046602;28;20417;-68
2021/10/22 03:51:01;;;;;;;1.00;1.00;;;5.80;99.90;;;;;;5046952;28;20162;-69
2021/10/22 03:53:27;;;;;;;1.93;1.10;;;5.80;99.90;;;;;;5046801;28;20170;-68
2021/10/22 03:55:53;;;;;;;1.67;1.57;;;5.70;99.90;;;;;;5045976;28;20501;-68
2021/10/22 03:58:19;;;;;;;1.20;1.10;;;5.70;99.90;;;;;;5046469;28;20413;-68
2021/10/22 04:00:46;;;;;;;1.00;0.90;;;5.70;99.90;;;;;;5046764;28;20182;-69
2021/10/22 04:03:13;;;;;;;0.90;0.90;;;5.60;99.90;;;;;;5045866;28;20427;-68
2021/10/22 04:05:38;;;;;;;1.55;1.42;;;5.60;99.90;;;;;;5046131;28;20182;-68
2021/10/22 04:08:04;;;;;;;1.40;1.30;;;5.60;99.90;;;;;;5046221;28;20182;-68
2021/10/22 04:10:30;;;;;;;1.90;1.80;;;5.50;99.90;;;;;;5046784;28;20449;-69
2021/10/22 04:12:55;;;;;;;1.43;1.33;;;5.50;99.90;;;;;;5046640;28;20487;-68
2021/10/22 04:15:21;;;;;;;1.20;1.10;;;5.50;99.90;;;;;;5035827;28;20229;-67
2021/10/22 04:17:47;;;;;;;1.30;1.20;;;5.50;99.90;;;;;;5062277;28;20191;-69
2021/10/22 04:20:13;;;;;;;2.30;1.50;;;5.50;99.90;;;;;;5066643;28;20179;-67
2021/10/22 04:22:39;;;;;;;3.20;1.40;;;5.50;99.90;;;;;;5066551;28;20281;-68
2021/10/22 04:25:05;;;;;;;4.28;2.10;;;5.50;99.90;;;;;;5053463;28;20682;-69
2021/10/22 04:27:32;;;;;;;1.92;1.83;;;5.50;99.90;;;;;;5046145;28;20222;-68
2021/10/22 04:30:05;;;;;;;2.25;1.95;;;5.50;99.90;;;;;;5046406;28;20468;-68
2021/10/22 04:32:31;;;;;;;1.17;1.10;;;5.50;99.90;;;;;;5046527;28;20166;-68
2021/10/22 04:34:57;;;;;;;4.67;2.53;;;5.50;99.90;;;;;;5035967;28;20210;-68
2021/10/22 04:37:27;;;;;;;1.63;1.50;;;5.40;99.90;;;;;;5026161;28;20610;-68
2021/10/22 04:42:43;;;;;;;1.95;1.50;;;5.40;99.90;;;;;;5026688;28;20190;-68
2021/10/22 04:45:10;;;;;;;1.60;1.50;;;5.30;99.90;;;;;;5027134;28;20253;-68
2021/10/22 04:47:37;;;;;;;3.55;2.55;;;5.30;99.90;;;;;;5027633;28;20375;-67
2021/10/22 04:50:05;;;;;;;2.03;1.88;;;5.30;99.90;;;;;;5030280;28;20175;-68
2021/10/22 04:52:31;;;;;;;1.83;1.52;;;5.30;99.90;;;;;;5030086;28;20159;-68
2021/10/22 04:54:57;;;;;;;2.97;1.43;;;5.30;99.90;;;;;;5047935;28;20233;-68
2021/10/22 04:57:22;;;;;;;2.33;2.13;;;5.30;99.90;;;;;;5032116;28;20413;-68
2021/10/22 04:59:48;;;;;;;2.13;2.00;;;5.30;99.90;;;;;;5029946;28;20229;-68
2021/10/22 05:02:14;;;;;;;2.43;2.23;;;5.40;99.90;;;;;;5047126;28;20220;-68
2021/10/22 05:04:39;;;;;;;1.93;1.83;;;5.30;99.90;;;;;;5040010;28;20377;-68
2021/10/22 05:07:05;;;;;;;3.33;1.83;;;5.30;99.90;;;;;;5039119;28;20188;-67
2021/10/22 05:09:30;;;;;;;10.83;1.93;;;5.30;99.90;;;;;;5049343;28;20236;-68
2021/10/22 05:11:56;;;;;;;2.97;2.67;;;5.30;99.90;;;;;;5049619;28;20182;-68
2021/10/22 05:14:22;;;;;;;2.00;1.90;;;5.30;99.90;;;;;;5049399;28;20254;-67
2021/10/22 05:16:47;;;;;;;2.07;1.97;;;5.30;99.90;;;;;;5048579;28;20165;-67
2021/10/22 05:19:13;;;;;;;2.07;1.90;;;5.30;99.90;;;;;;5049348;28;20209;-68
2021/10/22 05:21:39;;;;;;;2.63;1.80;;;5.30;99.90;;;;;;5049431;28;20418;-68
2021/10/22 05:24:04;;;;;;;3.93;2.93;;;5.30;99.90;;;;;;5049387;28;20245;-67
2021/10/22 05:26:30;;;;;;;2.30;2.10;;;5.30;99.90;;;;;;5048952;28;20382;-68
2021/10/22 05:28:56;;;;;;;4.05;2.38;;;5.20;99.90;;;;;;5028978;28;20203;-67
2021/10/22 05:31:22;;;;;;;3.23;2.20;;;5.20;99.90;;;;;;5028052;28;20198;-68
2021/10/22 05:33:47;;;;;;;2.90;2.33;;;5.20;99.90;;;;;;5029214;28;20170;-68
2021/10/22 05:36:13;;;;;;;2.30;1.70;;;5.10;99.90;;;;;;5029291;28;20187;-66
2021/10/22 05:38:39;;;;;;;2.37;2.27;;;5.10;99.90;;;;;;5045749;28;20462;-67
2021/10/22 05:41:04;;;;;;;1.87;1.60;;;5.10;99.90;;;;;;5049248;28;20177;-66
2021/10/22 05:43:30;;;;;;;2.13;1.70;;;5.10;99.90;;;;;;5047706;28;20171;-67
2021/10/22 05:45:56;;;;;;;4.80;2.63;;;5.00;99.90;;;;;;5030579;28;20237;-67
2021/10/22 05:48:22;;;;;;;2.38;1.50;;;5.00;99.90;;;;;;5028775;28;20737;-65
2021/10/22 05:50:47;;;;;;;2.13;1.93;;;5.00;99.90;;;;;;5028969;28;20186;-65
2021/10/22 05:53:13;;;;;;;1.83;1.70;;;5.00;99.90;;;;;;5028861;28;20234;-66
2021/10/22 05:55:39;;;;;;;2.47;1.57;;;5.00;99.90;;;;;;5046428;28;20205;-67
2021/10/22 05:58:05;;;;;;;3.63;1.75;;;5.00;99.90;;;;;;5041372;28;20186;-66
2021/10/22 06:00:31;;;;;;;2.00;1.80;;;5.10;99.90;;;;;;5036914;28;20327;-67
2021/10/22 06:02:58;;;;;;;2.60;2.40;;;4.90;99.90;;;;;;5028584;28;20184;-67
2021/10/22 06:05:24;;;;;;;2.47;2.35;;;5.00;99.90;;;;;;5039670;28;20197;-66
2021/10/22 06:07:49;;;;;;;2.03;1.93;;;5.00;99.90;;;;;;5047912;28;20205;-66
2021/10/22 06:10:16;;;;;;;2.23;2.00;;;5.00;99.90;;;;;;5048061;28;20375;-67
2021/10/22 06:12:41;;;;;;;3.35;1.90;;;5.00;99.90;;;;;;5048037;28;20173;-66
2021/10/22 06:15:07;;;;;;;2.60;2.40;;;5.00;99.90;;;;;;5048072;28;20197;-67
2021/10/22 06:17:33;;;;;;;2.90;2.67;;;5.10;99.90;;;;;;5047942;28;20201;-67
2021/10/22 06:20:10;;;;;;;2.83;2.63;;;5.10;99.90;;;;;;5048305;28;20405;-67
2021/10/22 06:25:01;;;;;;;2.40;1.90;;;5.10;99.90;;;;;;5048593;28;20166;-66
2021/10/22 06:27:27;;;;;;;1.93;1.83;;;5.10;99.90;;;;;;5048453;28;20206;-67
2021/10/22 06:29:53;;;;;;;2.13;1.92;;;5.20;99.90;;;;;;5048416;28;20415;-68
2021/10/22 06:32:18;;;;;;;2.10;2.00;;;5.20;99.90;;;;;;5048375;28;20170;-66
2021/10/22 06:34:44;;;;;;;1.80;1.70;;;5.30;99.90;;;;;;5048369;28;20199;-66
2021/10/22 06:37:10;;;;;;;4.43;3.73;;;5.30;99.90;;;;;;5047122;28;20177;-66
2021/10/22 06:39:36;;;;;;;4.47;2.30;;;5.40;99.90;;;;;;5050028;28;20163;-65
2021/10/22 06:42:01;;;;;;;3.90;2.50;;;5.40;99.90;;;;;;5051795;28;20226;-65
2021/10/22 06:44:27;;;;;;;5.97;2.53;;;5.50;99.90;;;;;;5051831;28;20178;-66
2021/10/22 06:46:55;;;;;;;7.70;3.30;;;5.50;99.90;;;;;;5051587;28;20638;-67
2021/10/22 06:49:21;;;;;;;5.53;3.08;;;5.60;99.90;;;;;;5052023;28;20213;-67
2021/10/22 06:51:47;;;;;;;9.27;2.63;;;5.60;99.90;;;;;;5052037;28;20157;-68
2021/10/22 06:54:12;;;;;;;2.93;2.00;;;5.70;99.90;;;;;;5051184;28;20255;-66
2021/10/22 06:56:38;;;;;;;2.07;1.87;;;5.80;99.90;;;;;;5038952;28;20181;-67
2021/10/22 06:59:04;;;;;;;2.60;2.40;;;5.90;99.90;;;;;;5027858;28;20254;-68
2021/10/22 07:01:29;;;;;;;2.67;2.47;;;6.00;99.90;;;;;;5027962;28;20187;-70
2021/10/22 07:03:55;;;;;;;3.43;1.97;;;6.10;99.90;;;;;;5027969;28;20404;-68
2021/10/22 07:09:05;;;;;;;2.85;2.58;;;6.40;99.90;;;;;;5027668;28;20309;-67
2021/10/22 07:11:31;;;;;;;3.33;2.77;;;6.50;99.90;;;;;;5026856;28;20186;-68
2021/10/22 07:13:58;;;;;;;2.47;2.27;;;6.50;99.90;;;;;;5027509;28;20226;-68
2021/10/22 07:16:30;;;;;;;2.38;2.28;;;6.50;99.90;;;;;;5026887;28;20438;-67
2021/10/22 07:18:56;;;;;;;2.85;2.33;;;6.60;99.90;;;;;;5027232;28;20191;-67
2021/10/22 07:21:22;;;;;;;13.53;3.87;;;6.60;99.90;;;;;;5027429;28;20166;-68
2021/10/22 07:23:49;;;;;;;1.77;1.67;;;6.60;99.90;;;;;;5027521;28;20421;-69
2021/10/22 07:26:16;;;;;;;3.10;2.45;;;6.80;99.90;;;;;;5027543;28;20186;-69
2021/10/22 07:28:42;;;;;;;5.10;2.58;;;7.10;99.90;;;;;;5026467;28;20182;-69
2021/10/22 07:31:11;;;;;;;2.20;2.10;;;7.20;99.90;;;;;;5026788;28;20302;-70
2021/10/22 07:33:39;;;;;;;5.05;2.60;;;7.50;99.90;;;;;;5026047;28;20229;-69
2021/10/22 07:36:07;;;;;;;3.17;2.30;;;7.60;99.90;;;;;;5025975;28;20214;-68
2021/10/22 07:38:33;;;;;;;4.65;3.15;;;7.80;99.90;;;;;;5025793;28;20241;-71
2021/10/22 07:40:59;;;;;;;10.52;5.50;;;8.00;99.90;;;;;;5026130;28;20166;-68
2021/10/22 07:43:25;;;;;;;11.33;5.23;;;8.90;99.90;;;;;;5027013;28;20406;-70
2021/10/22 07:45:51;;;;;;;4.20;3.13;;;10.00;99.90;;;;;;5027107;28;20169;-71
2021/10/22 07:48:16;;;;;;;2.83;1.90;;;11.40;99.90;;;;;;5026769;28;20209;-69
2021/10/22 07:50:42;;;;;;;3.63;1.67;;;12.70;99.90;;;;;;5025766;28;20492;-71
2021/10/22 07:53:08;;;;;;;3.20;1.83;;;13.80;99.90;;;;;;5025301;28;20175;-72
2021/10/22 07:55:35;;;;;;;6.40;1.77;;;14.50;99.90;;;;;;5027644;28;20648;-71
2021/10/22 07:58:02;;;;;;;4.20;2.00;;;15.10;99.90;;;;;;5044586;28;20336;-71
2021/10/22 08:00:28;;;;;;;3.50;1.50;;;15.90;99.90;;;;;;5044934;28;20507;-71
2021/10/22 08:02:53;;;;;;;3.77;1.73;;;16.60;99.90;;;;;;5044091;28;20424;-71
2021/10/22 08:05:21;;;;;;;2.10;1.80;;;17.40;99.90;;;;;;5044638;28;20435;-69
2021/10/22 08:07:48;;;;;;;1.83;1.50;;;18.20;99.90;;;;;;5046385;28;20255;-70
2021/10/22 08:10:14;;;;;;;4.33;1.30;;;18.90;99.90;;;;;;5046738;28;20379;-70
2021/10/22 08:12:40;;;;;;;3.73;1.70;;;19.40;98.20;;;;;;5046678;28;20534;-72
2021/10/22 08:15:06;;;;;;;3.00;1.47;;;20.00;96.60;;;;;;5046635;28;20679;-70
2021/10/22 08:17:32;;;;;;;1.67;1.57;;;20.50;94.30;;;;;;5046280;28;20512;-70
2021/10/22 08:20:01;;;;;;;2.03;1.70;;;20.90;92.10;;;;;;5045654;28;20436;-69
2021/10/22 08:25:09;;;;;;;2.43;1.57;;;21.40;89.40;;;;;;5050777;28;20465;-70
2021/10/22 08:27:38;;;;;;;2.33;0.90;;;21.60;86.70;;;;;;5050315;28;20448;-70
2021/10/22 08:30:08;;;;;;;5.70;1.50;;;21.90;84.40;;;;;;5049557;28;20532;-69
2021/10/22 08:32:34;;;;;;;1.70;1.30;;;21.90;79.80;;;;;;5050507;28;20408;-71
2021/10/22 08:35:02;;;;;;;2.00;1.30;;;22.00;80.40;;;;;;5050301;28;20475;-70
2021/10/22 08:37:28;;;;;;;7.97;4.53;;;22.20;79.10;;;;;;5050138;28;20525;-72
2021/10/22 08:39:55;;;;;;;4.43;2.20;;;22.10;75.80;;;;;;5050292;28;20459;-70
2021/10/22 08:42:23;;;;;;;1.40;1.23;;;22.20;76.60;;;;;;5050260;28;20177;-73
2021/10/22 08:44:56;;;;;;;2.33;1.40;;;22.30;74.50;;;;;;5049445;28;20421;-71
2021/10/22 08:47:27;;;;;;;3.23;0.97;;;22.30;72.60;;;;;;5049784;28;20653;-70
2021/10/22 08:50:00;;;;;;;1.73;1.00;;;22.50;73.70;;;;;;5050046;28;20383;-69
2021/10/22 08:52:33;;;;;;;1.53;0.87;;;22.80;73.20;;;;;;5050221;28;20428;-70
2021/10/22 08:55:03;;;;;;;2.60;0.87;;;22.80;69.40;;;;;;5050110;28;20488;-69
2021/10/22 08:57:29;;;;;;;3.60;1.20;;;22.60;69.00;;;;;;5031407;28;20632;-72
2021/10/22 08:59:58;;;;;;;7.10;5.00;;;22.50;69.10;;;;;;5030095;28;20380;-69
2021/10/22 09:02:25;;;;;;;1.40;0.93;;;22.40;70.50;;;;;;5030162;28;20622;-69
2021/10/22 09:04:56;;;;;;;2.20;1.33;;;22.30;69.50;;;;;;5029833;28;20417;-69
2021/10/22 09:08:07;;;;;;;2.30;2.20;;;22.40;71.50;;;;;;5029712;28;20406;-69
2021/10/22 09:10:35;;;;;;;2.77;1.10;;;22.40;69.60;;;;;;5017447;28;20505;-70
2021/10/22 09:13:06;;;;;;;1.00;0.90;;;22.40;68.80;;;;;;5029162;28;20483;-69
2021/10/22 09:15:39;;;;;;;2.17;1.20;;;22.50;70.10;;;;;;5029838;28;20469;-69
2021/10/22 09:18:19;;;;;;;1.30;1.20;;;22.50;69.10;;;;;;5029460;28;20413;-69
2021/10/22 09:20:53;;;;;;;0.80;0.80;;;22.60;68.50;;;;;;5029784;28;20390;-69
2021/10/22 09:23:31;;;;;;;1.90;0.97;;;22.50;67.30;;;;;;5029799;28;20402;-69
2021/10/22 09:37:47;;;;;;;2.00;1.43;;;22.60;65.30;;;;;;5089748;27;20694;-68
2021/10/22 09:40:13;;;;;;;2.20;1.43;;;23.20;63.20;;;;;;5089263;28;20419;-70
2021/10/22 09:42:47;;;;;;;2.50;1.07;;;22.90;63.60;;;;;;5090301;28;20501;-69
2021/10/22 09:45:25;;;;;;;3.50;1.07;;;22.60;65.50;;;;;;5090574;28;20199;-69
2021/10/22 09:47:51;;;;;;;2.83;1.37;;;22.40;64.90;;;;;;5089837;28;20514;-70
2021/10/22 09:50:16;;;;;;;1.23;0.87;;;21.90;63.10;;;;;;5090369;28;20535;-69
2021/10/22 09:52:44;;;;;;;2.03;1.30;;;21.80;65.60;;;;;;5090207;28;20184;-69
2021/10/22 09:55:19;;;;;;;3.33;1.60;;;21.80;67.70;;;;;;5090196;28;20168;-69
2021/10/22 09:58:02;;;;;;;2.10;1.57;;;21.80;68.00;;;;;;5088380;28;20520;-69
2021/10/22 10:00:33;;;;;;;1.50;0.63;;;21.90;65.50;;;;;;5090224;28;20398;-69
2021/10/22 10:03:03;;;;;;;2.60;0.80;;;21.70;66.80;;;;;;5089838;28;20856;-68
2021/10/22 10:05:29;;;;;;;0.97;0.73;;;21.50;64.90;;;;;;5088547;28;20476;-69
2021/10/22 10:07:56;;;;;;;3.47;1.10;;;21.40;66.60;;;;;;5089419;28;21019;-72
2021/10/22 10:10:22;;;;;;;1.33;0.70;;;21.40;64.00;;;;;;5089715;28;20489;-71
2021/10/22 10:12:48;;;;;;;1.50;0.80;;;21.20;60.90;;;;;;5090015;28;20473;-71
2021/10/22 10:15:13;;;;;;;0.93;0.80;;;20.80;59.40;;;;;;5090134;28;20632;-71
2021/10/22 10:17:46;;;;;;;1.53;1.00;;;20.50;61.30;;;;;;5089414;28;20243;-72
2021/10/22 10:20:18;;;;;;;1.80;0.80;;;20.50;63.30;;;;;;5087701;28;20639;-71
2021/10/22 10:22:46;;;;;;;0.50;0.50;;;20.50;62.10;;;;;;5087547;28;20413;-71
2021/10/22 10:25:12;;;;;;;4.00;1.03;;;20.20;64.40;;;;;;5087537;28;20538;-70
2021/10/22 10:27:47;;;;;;;1.10;1.00;;;20.30;60.80;;;;;;5086973;28;20487;-72
2021/10/22 10:30:15;;;;;;;1.17;0.63;;;20.30;60.90;;;;;;5087370;28;20182;-73
2021/10/22 10:32:44;;;;;;;1.23;0.90;;;20.20;61.30;;;;;;5087373;28;20482;-73
2021/10/22 10:35:12;;;;;;;0.77;0.70;;;20.30;58.80;;;;;;5089247;28;20375;-74
2021/10/22 10:37:47;;;;;;;2.73;1.20;;;20.20;59.20;;;;;;5079995;28;20437;-72
2021/10/22 10:40:24;;;;;;;2.37;1.67;;;20.00;59.50;;;;;;5075814;28;20411;-71
2021/10/22 10:42:59;;;;;;;1.10;0.90;;;19.60;59.40;;;;;;5074689;28;20389;-75
2021/10/22 10:45:25;;;;;;;1.97;0.50;;;19.40;60.90;;;;;;5075739;28;20413;-70
2021/10/22 10:47:58;;;;;;;0.80;0.73;;;19.20;60.00;;;;;;5075418;28;20422;-73
2021/10/22 10:50:39;;;;;;;0.77;0.70;;;19.00;60.00;;;;;;5076026;28;20177;-72
2021/10/22 10:53:06;;;;;;;2.60;0.97;;;18.70;59.90;;;;;;5075766;28;20377;-73
2021/10/22 10:55:31;;;;;;;1.00;0.57;;;18.60;60.90;;;;;;5075596;28;20405;-74
2021/10/22 10:58:06;;;;;;;3.23;0.80;;;18.60;61.40;;;;;;5075208;28;20517;-73
2021/10/22 11:00:33;;;;;;;1.10;0.50;;;18.20;60.90;;;;;;5075905;28;20372;-73
2021/10/22 11:03:13;;;;;;;1.57;1.03;;;17.70;61.60;;;;;;5075277;28;20498;-74
2021/10/22 11:05:46;;;;;;;1.33;0.80;;;17.00;63.00;;;;;;5075467;28;20798;-75
2021/10/22 11:08:16;;;;;;;2.00;0.87;;;16.20;63.60;;;;;;5074985;28;20426;-71
2021/10/22 11:11:10;;;;;;;0.43;0.43;;;15.40;65.70;;;;;;5075531;28;20379;-75
2021/10/22 11:14:06;;;;;;;1.73;0.70;;;14.90;63.70;;;;;;5075225;28;20424;-71
2021/10/22 11:16:36;;;;;;;0.70;0.60;;;14.40;64.90;;;;;;5075019;28;20412;-70
2021/10/22 11:19:10;;;;;;;0.57;0.57;;;14.00;67.50;;;;;;5075262;28;20393;-73
2021/10/22 11:21:49;;;;;;;0.60;0.60;;;13.70;66.80;;;;;;5073999;28;20422;-74
2021/10/22 11:24:21;;;;;;;1.13;0.73;;;13.50;67.20;;;;;;5075105;28;20373;-73
2021/10/22 11:26:59;;;;;;;2.07;0.73;;;13.30;68.60;;;;;;5074615;28;20451;-68
2021/10/22 11:29:25;;;;;;;0.97;0.60;;;13.30;69.10;;;;;;5075088;28;20401;-70
2021/10/22 11:32:15;;;;;;;0.80;0.80;;;13.10;69.60;;;;;;5073538;28;20390;-71
2021/10/22 11:35:03;;;;;;;2.47;0.90;;;13.00;69.90;;;;;;5074601;28;20213;-67
2021/10/22 11:37:36;;;;;;;1.27;0.90;;;12.80;66.70;;;;;;5073799;28;20448;-68
2021/10/22 11:40:05;;;;;;;0.80;0.80;;;12.80;67.60;;;;;;5074666;28;20381;-67
2021/10/22 11:42:32;;;;;;;0.70;0.70;;;12.60;67.40;;;;;;5074860;28;20395;-67
2021/10/22 11:45:04;;;;;;;1.90;1.40;;;12.60;67.40;;;;;;5074540;28;20402;-73
2021/10/22 11:47:40;;;;;;;0.90;0.70;;;12.60;69.20;;;;;;5074409;28;20832;-67
2021/10/22 11:50:28;;;;;;;3.37;0.93;;;12.60;68.60;;;;;;5073449;28;20839;-67
2021/10/22 11:53:25;;;;;;;2.23;0.87;;;12.50;69.80;;;;;;5074740;28;20368;-65
2021/10/22 11:55:59;;;;;;;1.23;1.13;;;12.50;71.00;;;;;;5073052;28;20386;-66
2021/10/22 11:58:25;;;;;;;3.63;0.77;;;12.50;70.10;;;;;;5073837;28;20413;-66
2021/10/22 12:00:55;;;;;;;0.80;0.63;;;12.50;70.90;;;;;;5073982;28;20594;-65
2021/10/22 12:03:41;;;;;;;1.87;0.90;;;12.40;70.70;;;;;;5074299;28;20232;-66
2021/10/22 12:06:18;;;;;;;2.07;0.90;;;12.40;73.30;;;;;;5074638;28;20537;-67
2021/10/22 12:08:44;;;;;;;0.87;0.87;;;12.50;72.10;;;;;;5075017;28;20811;-70
2021/10/22 12:11:09;;;;;;;0.70;0.40;;;12.50;73.80;;;;;;5074320;28;20371;-71
2021/10/22 12:13:40;;;;;;;0.60;0.60;;;12.50;72.70;;;;;;5074185;28;20174;-70
2021/10/22 12:16:14;;;;;;;2.00;0.80;;;12.50;73.20;;;;;;5074110;28;20183;-72
2021/10/22 12:18:43;;;;;;;3.23;1.43;;;12.50;72.40;;;;;;5073582;28;20425;-70
2021/10/22 12:21:09;;;;;;;1.10;0.80;;;12.50;70.90;;;;;;5074276;28;20417;-71
2021/10/22 12:23:39;;;;;;;2.40;0.93;;;12.50;70.50;;;;;;5073961;28;20387;-72
2021/10/22 12:26:23;;;;;;;0.70;0.70;;;12.50;71.60;;;;;;5073950;28;20427;-71
2021/10/22 12:29:04;;;;;;;1.67;0.93;;;12.50;72.70;;;;;;5074002;28;20428;-70
2021/10/22 12:31:37;;;;;;;2.70;1.10;;;12.60;70.00;;;;;;5072805;28;20420;-71
2021/10/22 12:34:13;;;;;;;0.50;0.50;;;12.70;69.40;;;;;;5072570;28;20446;-71
2021/10/22 12:36:42;;;;;;;1.13;1.10;;;12.70;68.60;;;;;;5070728;28;20403;-70
2021/10/22 12:39:21;;;;;;;1.97;1.83;;;12.70;69.40;;;;;;5072248;28;20421;-71
2021/10/22 12:41:47;;;;;;;1.40;1.30;;;12.70;70.20;;;;;;5070286;28;20432;-71
2021/10/22 12:44:13;;;;;;;2.37;1.00;;;12.70;69.60;;;;;;5071688;28;20800;-71
2021/10/22 12:46:56;;;;;;;0.90;0.90;;;12.60;70.80;;;;;;5072686;28;20661;-71
2021/10/22 12:49:27;;;;;;;1.90;0.80;;;12.70;70.90;;;;;;5072991;28;20403;-71
2021/10/22 12:52:02;;;;;;;1.50;0.90;;;12.70;71.50;;;;;;5071927;28;20494;-72
2021/10/22 12:54:28;;;;;;;0.95;0.60;;;12.60;71.60;;;;;;5072021;28;20411;-70
2021/10/22 12:56:59;;;;;;;1.00;0.80;;;12.60;70.80;;;;;;5071801;28;20166;-69
2021/10/22 12:59:27;;;;;;;0.52;0.30;;;12.50;70.70;;;;;;5073462;28;20414;-70
2021/10/22 13:01:53;;;;;;;0.73;0.73;;;12.40;72.00;;;;;;5072799;28;20197;-70
2021/10/22 13:04:22;;;;;;;3.03;1.00;;;12.40;72.10;;;;;;5073182;28;20248;-70
2021/10/22 13:20:35;;;;;;;0.90;0.90;;;12.40;74.80;;;;;;5073500;28;20900;-70
2021/10/22 13:23:10;;;;;;;1.15;0.70;;;12.40;76.00;;;;;;5073528;28;20407;-71
2021/10/22 13:25:37;;;;;;;0.55;0.55;;;12.40;77.10;;;;;;5073084;28;20192;-72
2021/10/22 13:28:04;;;;;;;1.57;1.17;;;12.40;78.60;;;;;;5072635;28;20191;-74
2021/10/22 13:30:36;;;;;;;0.73;0.73;;;12.40;78.80;;;;;;5073037;28;20400;-71
2021/10/22 13:33:04;;;;;;;2.33;0.97;;;12.40;79.10;;;;;;5073030;28;20395;-71
2021/10/22 13:35:31;;;;;;;1.43;0.70;;;12.50;78.40;;;;;;5073124;28;20389;-70